createdAt,value
2023-02-11T00:04:43.147Z,83.10
2023-02-11T00:09:53.149Z,83.02
2023-02-11T00:15:03.024Z,83.00
2023-02-11T00:20:14.239Z,83.00
2023-02-11T00:25:23.966Z,82.95
2023-02-11T00:30:34.104Z,82.96
2023-02-11T00:35:43.903Z,82.93
2023-02-11T00:40:53.840Z,82.94
2023-02-11T00:46:04.156Z,82.89
2023-02-11T00:51:14.367Z,82.87
2023-02-11T00:56:24.178Z,82.82
2023-02-11T01:01:34.986Z,82.80
2023-02-11T01:06:44.746Z,82.81
2023-02-11T01:11:54.773Z,82.80
2023-02-11T01:17:05.871Z,82.80
2023-02-11T01:22:15.627Z,82.76
2023-02-11T01:27:25.139Z,82.77
2023-02-11T01:32:35.136Z,82.78
2023-02-11T01:37:44.798Z,82.75
2023-02-11T01:42:54.478Z,82.81
2023-02-11T01:48:05.362Z,82.75
2023-02-11T01:53:34.118Z,82.68
2023-02-11T01:58:49.466Z,82.57
2023-02-11T02:04:04.777Z,82.60
2023-02-11T02:09:20.669Z,82.60
2023-02-11T02:14:30.570Z,82.60
2023-02-11T02:20:28.523Z,82.60
2023-02-11T02:26:16.886Z,82.61
2023-02-11T02:32:00.856Z,82.60
2023-02-11T02:37:19.291Z,82.68
2023-02-11T02:42:30.243Z,82.71
2023-02-11T02:47:39.875Z,82.71
2023-02-11T02:52:59.669Z,82.68
2023-02-11T02:58:35.548Z,82.57
2023-02-11T03:03:56.726Z,82.46
2023-02-11T03:09:15.324Z,82.40
2023-02-11T03:14:28.295Z,82.32
2023-02-11T03:19:41.622Z,82.30
2023-02-11T03:24:52.455Z,82.26
2023-02-11T03:30:14.787Z,82.24
2023-02-11T03:35:30.794Z,82.16
2023-02-11T03:40:46.087Z,82.01
2023-02-11T03:45:57.924Z,81.99
2023-02-11T03:51:12.531Z,81.89
2023-02-11T03:56:26.221Z,81.82
2023-02-11T04:01:36.180Z,81.71
2023-02-11T04:06:46.144Z,81.68
2023-02-11T04:11:55.815Z,81.68
2023-02-11T04:17:05.833Z,81.61
2023-02-11T04:22:15.890Z,81.62
2023-02-11T04:27:25.722Z,81.60
2023-02-11T04:32:35.459Z,81.60
2023-02-11T04:37:45.025Z,81.60
2023-02-11T04:42:54.724Z,81.69
2023-02-11T04:48:05.080Z,81.86
2023-02-11T04:53:14.855Z,81.94
2023-02-11T04:58:25.074Z,82.04
2023-02-11T05:03:34.767Z,82.10
2023-02-11T05:08:44.718Z,82.59
2023-02-11T05:13:54.868Z,83.29
2023-02-11T05:19:04.510Z,83.79
2023-02-11T05:24:14.626Z,84.21
2023-02-11T05:29:24.161Z,84.32
2023-02-11T05:34:34.016Z,84.31
2023-02-11T05:39:43.774Z,84.42
2023-02-11T05:44:53.569Z,84.67
2023-02-11T05:50:03.450Z,84.67
2023-02-11T05:55:13.724Z,84.80
2023-02-11T06:00:24.343Z,84.89
2023-02-11T06:05:34.118Z,85.08
2023-02-11T06:10:46.000Z,85.14
2023-02-11T06:16:04.506Z,85.20
2023-02-11T06:21:15.322Z,85.46
2023-02-11T06:26:26.604Z,85.72
2023-02-11T06:31:36.486Z,85.75
2023-02-11T06:36:46.174Z,85.81
2023-02-11T06:41:56.014Z,85.84
2023-02-11T06:47:05.588Z,85.88
2023-02-11T06:52:15.439Z,86.07
2023-02-11T06:57:25.135Z,86.21
2023-02-11T07:02:34.884Z,86.11
2023-02-11T07:07:44.569Z,86.38
2023-02-11T07:12:57.681Z,86.36
2023-02-11T07:18:09.952Z,86.33
2023-02-11T07:23:19.838Z,86.29
2023-02-11T07:28:29.570Z,86.37
2023-02-11T07:33:40.006Z,86.47
2023-02-11T07:38:50.260Z,86.68
2023-02-11T07:44:00.584Z,86.79
2023-02-11T07:49:10.355Z,86.93
2023-02-11T07:54:20.047Z,87.11
2023-02-11T07:59:29.956Z,87.31
2023-02-11T08:04:40.123Z,87.69
2023-02-11T08:09:52.486Z,87.74
2023-02-11T08:15:02.144Z,87.64
2023-02-11T08:20:13.869Z,87.89
2023-02-11T08:25:23.488Z,88.25
2023-02-11T08:30:33.231Z,88.19
2023-02-11T08:35:43.010Z,88.14
2023-02-11T08:40:53.130Z,88.20
2023-02-11T08:46:03.506Z,88.36
2023-02-11T08:51:17.290Z,88.21
2023-02-11T08:56:28.238Z,88.38
2023-02-11T09:01:38.107Z,88.28
2023-02-11T09:06:48.048Z,88.50
2023-02-11T09:11:57.881Z,88.54
2023-02-11T09:17:07.855Z,88.62
2023-02-11T09:22:18.027Z,88.57
2023-02-11T09:27:27.838Z,88.54
2023-02-11T09:32:37.682Z,88.68
2023-02-11T09:37:47.590Z,88.71
2023-02-11T09:43:04.256Z,88.67
2023-02-11T09:48:22.412Z,88.74
2023-02-11T09:53:38.426Z,88.69
2023-02-11T09:58:49.317Z,88.86
2023-02-11T10:04:09.283Z,88.89
2023-02-11T10:10:04.444Z,88.96
2023-02-11T10:15:33.625Z,89.14
2023-02-11T10:20:53.346Z,89.10
2023-02-11T10:26:04.335Z,89.01
2023-02-11T10:31:19.731Z,89.06
2023-02-11T10:36:35.559Z,88.97
2023-02-11T10:41:49.723Z,88.83
2023-02-11T10:47:04.805Z,88.79
2023-02-11T10:52:26.193Z,88.68
2023-02-11T10:57:43.058Z,88.75
2023-02-11T11:03:00.590Z,88.79
2023-02-11T11:08:13.604Z,88.99
2023-02-11T11:13:33.948Z,89.26
2023-02-11T11:18:45.070Z,89.19
2023-02-11T11:24:02.493Z,89.08
2023-02-11T11:29:19.584Z,89.08
2023-02-11T11:34:35.126Z,89.21
2023-02-11T11:39:50.377Z,89.18
2023-02-11T11:45:20.854Z,89.18
2023-02-11T11:50:36.865Z,89.27
2023-02-11T11:56:02.410Z,89.46
2023-02-11T12:01:36.869Z,89.57
2023-02-11T12:07:02.573Z,89.48
2023-02-11T12:12:37.628Z,89.46
2023-02-11T12:18:09.587Z,89.41
2023-02-11T12:23:40.477Z,89.46
2023-02-11T12:29:08.094Z,89.64
2023-02-11T12:34:59.665Z,89.57
2023-02-11T12:40:22.702Z,89.64
2023-02-11T12:45:48.084Z,89.69
2023-02-11T12:51:07.813Z,89.84
2023-02-11T12:56:25.144Z,89.89
2023-02-11T13:01:44.082Z,89.92
2023-02-11T13:07:02.991Z,90.01
2023-02-11T13:12:33.968Z,89.96
2023-02-11T13:17:56.412Z,90.02
2023-02-11T13:23:19.994Z,90.06
2023-02-11T13:28:44.408Z,90.30
2023-02-11T13:33:54.842Z,90.23
2023-02-11T13:39:21.029Z,90.49
2023-02-11T13:44:35.517Z,90.53
2023-02-11T13:49:54.641Z,90.67
2023-02-11T13:55:16.857Z,90.60
2023-02-11T14:00:54.832Z,90.56
2023-02-11T14:06:39.571Z,90.69
2023-02-11T14:11:57.517Z,90.53
2023-02-11T14:17:35.922Z,90.42
2023-02-11T14:22:54.729Z,90.26
2023-02-11T14:28:16.877Z,90.26
2023-02-11T14:34:02.269Z,90.18
2023-02-11T14:39:24.440Z,90.12
2023-02-11T14:44:37.407Z,90.26
2023-02-11T14:49:48.446Z,90.28
2023-02-11T14:55:17.856Z,90.28
2023-02-11T15:00:28.053Z,90.29
2023-02-11T15:05:38.348Z,90.13
2023-02-11T15:10:49.215Z,90.24
2023-02-11T15:16:05.994Z,90.35
2023-02-11T15:21:21.959Z,90.36
2023-02-11T15:26:32.359Z,90.32
2023-02-11T15:31:43.859Z,90.39
2023-02-11T15:36:54.475Z,90.50
2023-02-11T15:42:25.730Z,90.54
2023-02-11T15:47:35.531Z,90.72
2023-02-11T15:52:50.199Z,90.70
2023-02-11T15:58:03.183Z,90.79
2023-02-11T16:03:24.603Z,90.81
2023-02-11T16:08:35.770Z,90.82
2023-02-11T16:13:50.889Z,90.79
2023-02-11T16:19:06.069Z,90.75
2023-02-11T16:24:28.299Z,90.72
2023-02-11T16:29:40.818Z,90.64
2023-02-11T16:34:51.377Z,90.52
2023-02-11T16:40:01.383Z,90.35
2023-02-11T16:45:13.585Z,90.06
2023-02-11T16:50:28.158Z,89.97
2023-02-11T16:55:38.874Z,89.89
2023-02-11T17:00:50.774Z,89.97
2023-02-11T17:06:03.387Z,89.94
2023-02-11T17:11:16.974Z,89.89
2023-02-11T17:16:30.271Z,89.84
2023-02-11T17:21:42.234Z,89.83
2023-02-11T17:26:52.573Z,89.82
2023-02-11T17:32:02.481Z,89.72
2023-02-11T17:37:12.548Z,89.59
2023-02-11T17:42:22.851Z,88.74
2023-02-11T17:47:33.031Z,87.80
2023-02-11T17:52:42.965Z,88.02
2023-02-11T17:57:53.096Z,87.85
2023-02-11T18:03:03.766Z,87.57
2023-02-11T18:08:13.522Z,87.56
2023-02-11T18:13:23.311Z,87.31
2023-02-11T18:18:33.749Z,86.98
2023-02-11T18:23:44.503Z,85.71
2023-02-11T18:28:55.192Z,85.18
2023-02-11T18:34:06.252Z,84.31
2023-02-11T18:39:16.880Z,84.05
2023-02-11T18:44:27.119Z,84.88
2023-02-11T18:49:37.231Z,84.69
2023-02-11T18:54:47.549Z,84.97
2023-02-11T18:59:57.150Z,85.10
2023-02-11T19:05:07.630Z,85.17
2023-02-11T19:10:17.870Z,85.03
2023-02-11T19:15:27.648Z,85.09
2023-02-11T19:20:40.422Z,84.24
2023-02-11T19:25:53.994Z,84.01
2023-02-11T19:31:10.926Z,84.05
2023-02-11T19:36:21.772Z,84.43
2023-02-11T19:41:32.461Z,83.88
2023-02-11T19:46:43.518Z,84.31
2023-02-11T19:51:54.339Z,84.25
2023-02-11T19:57:04.098Z,84.27
2023-02-11T20:02:15.218Z,84.41
2023-02-11T20:07:24.970Z,84.54
2023-02-11T20:12:35.894Z,84.69
2023-02-11T20:17:45.856Z,84.84
2023-02-11T20:22:56.387Z,84.74
2023-02-11T20:28:06.397Z,84.72
2023-02-11T20:33:16.531Z,84.72
2023-02-11T20:38:26.483Z,84.55
2023-02-11T20:43:38.021Z,84.42
2023-02-11T20:48:48.083Z,84.19
2023-02-11T20:53:58.757Z,84.27
2023-02-11T20:59:08.970Z,84.31
2023-02-11T21:04:22.194Z,84.26
2023-02-11T21:09:35.305Z,84.28
2023-02-11T21:14:45.354Z,83.85
2023-02-11T21:19:55.250Z,83.84
2023-02-11T21:25:06.372Z,83.78
2023-02-11T21:30:17.721Z,83.86
2023-02-11T21:35:27.753Z,84.11
2023-02-11T21:40:37.683Z,84.24
2023-02-11T21:45:51.455Z,84.19
2023-02-11T21:51:02.575Z,84.31
2023-02-11T21:56:17.219Z,84.37
2023-02-11T22:01:29.916Z,84.18
2023-02-11T22:06:40.247Z,84.14
2023-02-11T22:11:50.558Z,84.17
2023-02-11T22:17:00.401Z,84.21
2023-02-11T22:22:10.162Z,84.39
2023-02-11T22:27:20.533Z,84.57
2023-02-11T22:32:30.378Z,84.71
2023-02-11T22:37:40.288Z,84.82
2023-02-11T22:42:49.941Z,84.82
2023-02-11T22:48:00.342Z,84.81
2023-02-11T22:53:10.352Z,84.53
2023-02-11T22:58:20.384Z,84.14
2023-02-11T23:03:31.517Z,83.79
2023-02-11T23:08:43.649Z,83.51
2023-02-11T23:13:56.132Z,81.34
2023-02-11T23:19:09.185Z,81.32
2023-02-11T23:24:21.212Z,81.71
2023-02-11T23:29:30.794Z,80.85
2023-02-11T23:34:40.434Z,80.62
2023-02-11T23:39:50.392Z,80.21
2023-02-11T23:45:00.375Z,80.84
2023-02-11T23:50:12.390Z,80.47
2023-02-11T23:55:22.159Z,80.08
